createdAt,value
2022-07-27T00:00:56.786Z,10.68
2022-07-27T00:03:24.115Z,10.38
2022-07-27T00:05:50.736Z,9.00
2022-07-27T00:08:20.335Z,9.32
2022-07-27T00:10:46.909Z,8.20
2022-07-27T00:13:13.421Z,7.68
2022-07-27T00:15:39.981Z,7.72
2022-07-27T00:18:06.505Z,7.22
2022-07-27T00:20:33.148Z,6.75
2022-07-27T00:22:59.757Z,6.80
2022-07-27T00:25:27.807Z,6.90
2022-07-27T00:27:56.814Z,6.13
2022-07-27T00:30:25.088Z,7.28
2022-07-27T00:32:52.069Z,8.32
2022-07-27T00:35:19.224Z,7.30
2022-07-27T00:37:45.793Z,7.22
2022-07-27T00:40:12.620Z,7.38
2022-07-27T00:42:39.287Z,6.53
2022-07-27T00:45:06.294Z,6.97
2022-07-27T00:47:33.271Z,7.20
2022-07-27T00:50:00.252Z,8.23
2022-07-27T00:52:29.973Z,7.78
2022-07-27T00:54:57.581Z,8.05
2022-07-27T00:57:26.018Z,7.75
2022-07-27T00:59:52.535Z,7.35
2022-07-27T01:02:20.058Z,7.72
2022-07-27T01:04:49.704Z,7.25
2022-07-27T01:07:22.464Z,6.93
2022-07-27T01:09:59.099Z,6.95
2022-07-27T01:12:29.013Z,6.15
2022-07-27T01:14:57.928Z,5.80
2022-07-27T01:17:26.418Z,6.05
2022-07-27T01:19:53.528Z,6.07
2022-07-27T01:22:20.238Z,5.53
2022-07-27T01:24:47.981Z,6.20
2022-07-27T01:27:14.655Z,6.45
2022-07-27T01:29:42.101Z,5.57
2022-07-27T01:32:08.777Z,5.90
2022-07-27T01:34:35.838Z,6.47
2022-07-27T01:37:03.358Z,5.57
2022-07-27T01:39:30.630Z,5.93
2022-07-27T01:41:57.571Z,5.95
2022-07-27T01:44:24.243Z,5.43
2022-07-27T01:46:51.371Z,5.85
2022-07-27T01:49:18.409Z,5.18
2022-07-27T01:51:44.977Z,5.05
2022-07-27T01:54:11.992Z,5.10
2022-07-27T01:56:38.535Z,5.60
2022-07-27T01:59:05.232Z,5.45
2022-07-27T02:01:31.895Z,5.30
2022-07-27T02:03:58.540Z,5.55
2022-07-27T02:06:25.078Z,5.22
2022-07-27T02:08:51.626Z,4.32
2022-07-27T02:11:36.859Z,4.70
2022-07-27T02:14:03.416Z,5.35
2022-07-27T02:16:30.032Z,4.25
2022-07-27T02:18:56.626Z,4.70
2022-07-27T02:21:23.256Z,4.40
2022-07-27T02:23:49.830Z,4.80
2022-07-27T02:26:16.384Z,4.47
2022-07-27T02:28:42.912Z,4.10
2022-07-27T02:31:09.567Z,4.30
2022-07-27T02:33:37.127Z,5.03
2022-07-27T02:36:04.017Z,4.40
2022-07-27T02:38:30.525Z,3.60
2022-07-27T02:40:57.203Z,4.18
2022-07-27T02:43:23.822Z,3.90
2022-07-27T02:45:51.550Z,4.53
2022-07-27T02:48:18.119Z,4.03
2022-07-27T02:50:44.701Z,3.80
2022-07-27T02:53:11.281Z,3.67
2022-07-27T02:55:37.822Z,4.18
2022-07-27T02:58:04.354Z,3.90
2022-07-27T03:00:31.039Z,4.30
2022-07-27T03:02:57.632Z,4.57
2022-07-27T03:05:24.182Z,4.13
2022-07-27T03:07:50.720Z,3.95
2022-07-27T03:10:17.270Z,3.97
2022-07-27T03:12:45.066Z,4.05
2022-07-27T03:15:11.737Z,4.38
2022-07-27T03:17:38.306Z,3.92
2022-07-27T03:20:05.575Z,3.80
2022-07-27T03:22:35.426Z,4.30
2022-07-27T03:25:02.037Z,4.95
2022-07-27T03:27:29.298Z,4.15
2022-07-27T03:29:56.533Z,4.45
2022-07-27T03:32:23.137Z,3.60
2022-07-27T03:34:49.983Z,3.50
2022-07-27T03:37:19.068Z,4.00
2022-07-27T03:39:46.283Z,3.55
2022-07-27T03:42:13.155Z,4.55
2022-07-27T03:44:39.856Z,4.03
2022-07-27T03:47:06.434Z,4.53
2022-07-27T03:49:33.176Z,4.35
2022-07-27T03:51:59.848Z,4.47
2022-07-27T03:54:26.642Z,4.20
2022-07-27T03:56:53.282Z,4.85
2022-07-27T03:59:19.905Z,5.47
2022-07-27T04:01:46.855Z,4.40
2022-07-27T04:04:13.888Z,6.60
2022-07-27T04:06:40.593Z,5.43
2022-07-27T04:09:08.874Z,4.63
2022-07-27T04:11:43.616Z,6.73
2022-07-27T04:14:17.614Z,4.30
2022-07-27T04:16:44.152Z,4.97
2022-07-27T04:19:10.998Z,4.85
2022-07-27T04:21:38.020Z,4.72
2022-07-27T04:24:04.969Z,5.10
2022-07-27T04:26:31.590Z,5.60
2022-07-27T04:28:58.326Z,5.68
2022-07-27T04:31:26.845Z,5.60
2022-07-27T04:33:53.756Z,5.63
2022-07-27T04:36:20.287Z,5.60
2022-07-27T04:38:47.005Z,5.28
2022-07-27T04:41:13.571Z,5.32
2022-07-27T04:43:40.122Z,4.47
2022-07-27T04:46:10.544Z,5.75
2022-07-27T04:48:39.911Z,6.32
2022-07-27T04:51:08.130Z,5.55
2022-07-27T04:53:35.908Z,6.00
2022-07-27T04:56:02.472Z,5.40
2022-07-27T04:58:29.031Z,6.05
2022-07-27T05:00:55.586Z,5.22
2022-07-27T05:03:22.160Z,6.00
2022-07-27T05:05:50.221Z,5.50
2022-07-27T05:08:18.237Z,5.03
2022-07-27T05:10:45.000Z,4.65
2022-07-27T05:13:13.263Z,5.15
2022-07-27T05:15:55.009Z,4.80
2022-07-27T05:18:23.467Z,6.80
2022-07-27T05:20:50.029Z,5.15
2022-07-27T05:23:17.684Z,4.07
2022-07-27T05:25:44.432Z,5.25
2022-07-27T05:28:14.100Z,5.05
2022-07-27T05:30:40.891Z,4.22
2022-07-27T05:33:07.577Z,4.13
2022-07-27T05:35:34.213Z,4.55
2022-07-27T05:38:00.797Z,4.80
2022-07-27T05:40:27.517Z,4.78
2022-07-27T05:42:54.250Z,5.30
2022-07-27T05:45:21.227Z,5.05
2022-07-27T05:47:47.823Z,5.53
2022-07-27T05:50:15.620Z,5.30
2022-07-27T05:52:43.536Z,6.43
2022-07-27T05:55:10.328Z,7.03
2022-07-27T05:57:37.828Z,5.47
2022-07-27T06:00:08.727Z,6.03
2022-07-27T06:02:35.351Z,5.60
2022-07-27T06:05:02.387Z,5.95
2022-07-27T06:07:49.368Z,6.88
2022-07-27T06:10:17.061Z,6.07
2022-07-27T06:12:46.040Z,6.72
2022-07-27T06:15:14.259Z,5.65
2022-07-27T06:17:41.217Z,4.90
2022-07-27T06:20:10.289Z,5.50
2022-07-27T06:22:51.527Z,4.72
2022-07-27T06:25:19.603Z,4.20
2022-07-27T06:27:46.455Z,4.50
2022-07-27T06:30:15.203Z,5.50
2022-07-27T06:32:42.254Z,5.60
2022-07-27T06:35:12.545Z,5.10
2022-07-27T06:37:44.056Z,6.15
2022-07-27T06:40:14.174Z,6.35
2022-07-27T06:42:41.676Z,6.07
2022-07-27T06:45:09.115Z,6.25
2022-07-27T06:47:36.018Z,6.88
2022-07-27T06:50:16.213Z,8.02
2022-07-27T06:52:43.631Z,7.20
2022-07-27T06:55:10.710Z,7.38
2022-07-27T06:57:37.243Z,6.45
2022-07-27T07:00:06.330Z,8.05
2022-07-27T07:02:32.887Z,9.90
2022-07-27T07:04:59.475Z,10.93
2022-07-27T07:07:26.012Z,8.43
2022-07-27T07:09:52.513Z,9.45
2022-07-27T07:12:19.128Z,11.43
2022-07-27T07:14:45.731Z,12.70
2022-07-27T07:17:12.275Z,13.80
2022-07-27T07:19:38.834Z,14.07
2022-07-27T07:22:05.382Z,15.07
2022-07-27T07:24:31.983Z,15.18
2022-07-27T07:26:58.804Z,18.55
2022-07-27T07:29:25.367Z,19.08
2022-07-27T07:31:52.017Z,21.85
2022-07-27T07:34:18.683Z,23.27
2022-07-27T07:36:47.781Z,19.40
2022-07-27T07:39:14.787Z,28.88
2022-07-27T07:41:41.962Z,26.50
2022-07-27T07:44:10.070Z,30.85
2022-07-27T07:46:37.100Z,31.83
2022-07-27T07:49:04.814Z,33.42
2022-07-27T07:51:32.161Z,38.28
2022-07-27T07:53:59.163Z,36.45
2022-07-27T07:56:25.752Z,34.97
2022-07-27T07:58:52.286Z,35.35
2022-07-27T08:01:19.211Z,28.63
2022-07-27T08:03:50.617Z,27.42
2022-07-27T08:06:17.497Z,35.20
2022-07-27T08:08:44.040Z,49.97
2022-07-27T08:11:10.636Z,37.80
2022-07-27T08:13:37.332Z,38.90
2022-07-27T08:16:04.105Z,32.55
2022-07-27T08:18:30.756Z,29.20
2022-07-27T08:20:57.349Z,30.42
2022-07-27T08:23:24.148Z,35.40
2022-07-27T08:25:50.703Z,39.67
2022-07-27T08:28:17.241Z,49.92
2022-07-27T08:30:44.759Z,44.42
2022-07-27T08:33:11.539Z,309.77
2022-07-27T08:35:38.160Z,171.13
2022-07-27T08:38:06.981Z,59.42
2022-07-27T08:40:40.259Z,79.82
2022-07-27T08:43:10.116Z,70.35
2022-07-27T08:45:37.727Z,70.20
2022-07-27T08:48:05.068Z,77.72
2022-07-27T08:50:33.713Z,78.53
2022-07-27T08:53:05.727Z,151.55
2022-07-27T08:55:34.332Z,88.22
2022-07-27T08:58:03.437Z,91.43
2022-07-27T09:00:31.752Z,101.63
2022-07-27T09:02:58.818Z,99.95
2022-07-27T09:05:25.821Z,104.43
2022-07-27T09:08:18.185Z,108.07
2022-07-27T09:10:44.774Z,109.22
2022-07-27T09:13:19.155Z,87.80
2022-07-27T09:16:16.915Z,91.30
2022-07-27T09:18:39.461Z,83.20
2022-07-27T09:21:12.004Z,93.25
2022-07-27T09:23:40.227Z,94.40
2022-07-27T09:26:34.527Z,97.35
2022-07-27T09:29:15.666Z,104.15
2022-07-27T09:31:43.686Z,116.05
2022-07-27T09:34:12.017Z,116.60
2022-07-27T09:36:53.042Z,112.55
2022-07-27T09:39:21.851Z,124.68
2022-07-27T09:41:50.999Z,133.57
2022-07-27T09:44:43.405Z,129.57
2022-07-27T09:47:28.133Z,143.87
2022-07-27T09:50:15.652Z,142.40
2022-07-27T09:52:44.073Z,150.65
2022-07-27T09:55:10.754Z,151.43
2022-07-27T09:57:53.252Z,149.68
2022-07-27T10:00:20.252Z,147.60
2022-07-27T10:02:47.969Z,157.32
2022-07-27T10:05:18.192Z,165.75
2022-07-27T10:07:45.217Z,152.77
2022-07-27T10:10:14.521Z,150.18
2022-07-27T10:12:49.194Z,167.32
2022-07-27T10:15:18.718Z,169.57
2022-07-27T10:17:46.712Z,159.35
2022-07-27T10:20:17.141Z,144.73
2022-07-27T10:23:01.161Z,149.98
2022-07-27T10:25:37.341Z,153.32
2022-07-27T10:28:09.623Z,159.07
2022-07-27T10:30:36.637Z,144.43
2022-07-27T10:33:32.056Z,155.18
2022-07-27T10:35:58.603Z,148.05
2022-07-27T10:38:46.740Z,138.57
2022-07-27T10:41:40.650Z,141.43
2022-07-27T10:44:20.975Z,130.40
2022-07-27T10:47:02.178Z,123.15
2022-07-27T10:49:32.395Z,124.35
2022-07-27T10:52:01.201Z,114.20
2022-07-27T10:54:32.477Z,111.57
2022-07-27T10:57:00.583Z,116.47
2022-07-27T11:02:42.234Z,112.72
2022-07-27T11:05:53.863Z,116.40
2022-07-27T11:08:35.751Z,120.15
2022-07-27T11:10:47.362Z,121.60
2022-07-27T11:13:14.498Z,129.07
2022-07-27T11:15:59.823Z,123.15
2022-07-27T11:18:34.371Z,114.90
2022-07-27T11:21:26.781Z,121.13
2022-07-27T11:23:56.666Z,108.55
2022-07-27T11:26:25.991Z,77.85
2022-07-27T11:28:53.990Z,98.50
2022-07-27T11:31:38.669Z,96.72
2022-07-27T11:34:08.127Z,64.68
2022-07-27T11:36:37.824Z,74.13
2022-07-27T11:39:06.804Z,65.20
2022-07-27T11:42:08.953Z,54.15
2022-07-27T11:44:21.975Z,57.60
2022-07-27T11:46:50.248Z,42.60
2022-07-27T11:49:26.550Z,32.28
2022-07-27T11:51:57.897Z,30.30
2022-07-27T11:54:33.587Z,32.47
2022-07-27T11:57:05.667Z,35.95
2022-07-27T11:59:38.321Z,36.88
2022-07-27T12:02:09.324Z,30.95
2022-07-27T12:04:38.707Z,37.35
2022-07-27T12:07:07.734Z,33.38
2022-07-27T12:09:39.199Z,31.25
2022-07-27T12:12:08.543Z,31.45
2022-07-27T12:14:37.060Z,34.90
2022-07-27T12:17:33.864Z,36.25
2022-07-27T12:20:13.895Z,34.47
2022-07-27T12:22:49.574Z,43.25
2022-07-27T12:25:18.933Z,44.47
2022-07-27T12:28:01.414Z,47.33
2022-07-27T12:30:33.221Z,33.92
2022-07-27T12:33:00.768Z,34.95
2022-07-27T12:35:37.316Z,34.28
2022-07-27T12:38:07.962Z,36.17
2022-07-27T12:40:42.573Z,34.58
2022-07-27T12:43:09.840Z,32.60
2022-07-27T12:45:38.297Z,31.75
2022-07-27T12:48:06.559Z,31.85
2022-07-27T12:50:33.345Z,30.58
2022-07-27T12:53:00.015Z,32.92
2022-07-27T12:55:26.531Z,29.48
2022-07-27T12:57:57.120Z,28.23
2022-07-27T13:00:31.073Z,28.45
2022-07-27T13:03:01.608Z,28.15
2022-07-27T13:05:28.257Z,28.67
2022-07-27T13:07:54.857Z,28.05
2022-07-27T13:10:22.208Z,28.20
2022-07-27T13:12:49.474Z,28.10
2022-07-27T13:15:16.822Z,28.83
2022-07-27T13:17:44.708Z,27.70
2022-07-27T13:20:12.540Z,27.85
2022-07-27T13:22:40.781Z,27.70
2022-07-27T13:25:15.975Z,28.33
2022-07-27T13:27:45.353Z,30.35
2022-07-27T13:30:13.402Z,28.08
2022-07-27T13:32:41.377Z,29.02
2022-07-27T13:35:09.839Z,26.83
2022-07-27T13:37:36.643Z,27.60
2022-07-27T13:40:04.740Z,25.58
2022-07-27T13:42:31.453Z,25.55
2022-07-27T13:45:08.579Z,22.60
2022-07-27T13:47:35.614Z,23.25
2022-07-27T13:50:03.365Z,23.10
2022-07-27T13:52:30.128Z,23.30
2022-07-27T13:54:56.666Z,25.08
2022-07-27T13:57:23.596Z,23.88
2022-07-27T13:59:50.137Z,24.45
2022-07-27T14:02:16.700Z,24.67
2022-07-27T14:07:17.052Z,26.65
2022-07-27T14:10:02.745Z,22.52
2022-07-27T14:12:29.527Z,23.80
2022-07-27T14:14:57.404Z,23.05
2022-07-27T14:17:24.008Z,21.40
2022-07-27T14:19:50.527Z,22.48
2022-07-27T14:22:17.092Z,23.70
2022-07-27T14:24:43.703Z,22.25
2022-07-27T14:27:10.410Z,22.10
2022-07-27T14:29:37.121Z,23.02
2022-07-27T14:32:04.112Z,23.75
2022-07-27T14:34:30.768Z,25.17
2022-07-27T14:36:57.798Z,28.35
2022-07-27T14:39:24.409Z,27.35
2022-07-27T14:41:50.994Z,26.65
2022-07-27T14:44:18.884Z,25.00
2022-07-27T14:46:46.212Z,27.13
2022-07-27T14:49:14.621Z,30.08
2022-07-27T14:51:41.213Z,28.63
2022-07-27T14:54:08.003Z,32.08
2022-07-27T14:56:36.501Z,28.10
2022-07-27T14:59:04.243Z,31.88
2022-07-27T15:01:31.012Z,28.10
2022-07-27T15:03:57.781Z,30.92
2022-07-27T15:06:24.383Z,30.27
2022-07-27T15:08:50.883Z,26.65
2022-07-27T15:11:17.527Z,27.63
2022-07-27T15:13:44.054Z,24.85
2022-07-27T15:16:11.958Z,25.80
2022-07-27T15:18:39.193Z,22.73
2022-07-27T15:21:13.607Z,20.13
2022-07-27T15:23:42.418Z,20.45
2022-07-27T15:26:08.967Z,22.27
2022-07-27T15:28:36.435Z,21.42
2022-07-27T15:31:03.301Z,21.83
2022-07-27T15:33:29.995Z,23.38
2022-07-27T15:35:56.870Z,24.48
2022-07-27T15:38:23.491Z,22.08
2022-07-27T15:40:50.294Z,25.45
2022-07-27T15:43:18.345Z,24.73
2022-07-27T15:45:50.827Z,20.42
2022-07-27T15:48:19.732Z,21.55
2022-07-27T15:50:51.783Z,21.08
2022-07-27T15:53:20.860Z,19.38
2022-07-27T15:55:48.214Z,20.55
2022-07-27T15:58:18.967Z,20.98
2022-07-27T16:00:49.512Z,21.20
2022-07-27T16:03:17.399Z,21.30
2022-07-27T16:05:47.655Z,30.50
2022-07-27T16:08:15.481Z,22.75
2022-07-27T16:10:43.384Z,32.70
2022-07-27T16:13:12.658Z,32.70
2022-07-27T16:15:59.950Z,33.00
2022-07-27T16:18:27.634Z,33.60
2022-07-27T16:20:54.559Z,39.55
2022-07-27T16:23:22.301Z,37.70
2022-07-27T16:26:04.379Z,42.75
2022-07-27T16:28:33.303Z,44.10
2022-07-27T16:30:59.952Z,39.80
2022-07-27T16:33:26.516Z,38.80
2022-07-27T16:35:53.171Z,38.33
2022-07-27T16:38:19.734Z,39.15
2022-07-27T16:40:46.247Z,37.15
2022-07-27T16:43:12.802Z,36.58
2022-07-27T16:45:39.471Z,35.15
2022-07-27T16:48:06.329Z,34.50
2022-07-27T16:50:32.933Z,36.00
2022-07-27T16:53:01.369Z,38.83
2022-07-27T16:55:28.313Z,42.42
2022-07-27T16:57:55.885Z,40.25
2022-07-27T17:00:22.720Z,46.17
2022-07-27T17:02:49.245Z,48.63
2022-07-27T17:05:16.064Z,47.13
2022-07-27T17:07:43.016Z,61.15
2022-07-27T17:10:09.993Z,59.65
2022-07-27T17:12:38.748Z,64.88
2022-07-27T17:15:06.667Z,96.00
2022-07-27T17:17:33.231Z,60.22
2022-07-27T17:19:59.907Z,67.25
2022-07-27T17:22:26.485Z,107.72
2022-07-27T17:24:53.157Z,126.47
2022-07-27T17:27:19.663Z,132.15
2022-07-27T17:29:46.296Z,131.93
2022-07-27T17:32:12.892Z,141.90
2022-07-27T17:34:41.538Z,169.68
2022-07-27T17:37:08.207Z,182.95
2022-07-27T17:39:35.438Z,203.57
2022-07-27T17:42:02.136Z,180.68
2022-07-27T17:44:28.849Z,195.15
2022-07-27T17:46:55.550Z,206.88
2022-07-27T17:49:22.209Z,216.85
2022-07-27T17:51:48.922Z,214.90
2022-07-27T17:54:15.525Z,220.75
2022-07-27T17:56:42.106Z,202.10
2022-07-27T17:59:34.671Z,200.75
2022-07-27T18:01:56.646Z,191.88
2022-07-27T18:04:23.433Z,188.68
2022-07-27T18:06:50.131Z,184.70
2022-07-27T18:09:17.359Z,182.10
2022-07-27T18:11:44.545Z,182.50
2022-07-27T18:14:11.536Z,177.20
2022-07-27T18:16:40.685Z,181.02
2022-07-27T18:19:08.329Z,170.55
2022-07-27T18:21:35.378Z,175.80
2022-07-27T18:24:02.248Z,172.82
2022-07-27T18:26:28.758Z,179.50
2022-07-27T18:28:57.633Z,163.35
2022-07-27T18:31:24.538Z,170.13
2022-07-27T18:33:54.356Z,174.23
2022-07-27T18:36:21.616Z,174.35
2022-07-27T18:38:51.433Z,196.93
2022-07-27T18:41:19.127Z,169.60
2022-07-27T18:43:51.570Z,176.98
2022-07-27T18:46:22.393Z,168.70
2022-07-27T18:48:49.899Z,170.75
2022-07-27T18:51:16.728Z,167.05
2022-07-27T18:53:44.177Z,161.23
2022-07-27T18:56:12.198Z,171.60
2022-07-27T18:58:38.838Z,166.70
2022-07-27T19:01:05.409Z,157.45
2022-07-27T19:03:32.197Z,168.57
2022-07-27T19:05:59.000Z,143.70
2022-07-27T19:08:25.653Z,153.85
2022-07-27T19:10:52.531Z,169.07
2022-07-27T19:13:19.136Z,157.23
2022-07-27T19:15:45.834Z,166.80
2022-07-27T19:18:14.505Z,166.77
2022-07-27T19:20:41.491Z,182.63
2022-07-27T19:23:08.028Z,209.10
2022-07-27T19:25:34.683Z,251.38
2022-07-27T19:28:02.835Z,238.00
2022-07-27T19:30:29.826Z,273.05
2022-07-27T19:32:56.508Z,276.83
2022-07-27T19:35:23.236Z,296.55
2022-07-27T19:37:49.768Z,286.55
2022-07-27T19:43:04.580Z,333.00
2022-07-27T19:45:31.666Z,367.85
2022-07-27T19:47:59.501Z,331.13
2022-07-27T19:50:26.228Z,339.50
2022-07-27T19:52:53.418Z,327.98
2022-07-27T19:55:20.089Z,360.02
2022-07-27T19:57:46.696Z,371.25
2022-07-27T20:00:13.738Z,343.75
2022-07-27T20:02:40.448Z,334.13
2022-07-27T20:05:07.758Z,358.13
2022-07-27T20:07:35.473Z,368.27
2022-07-27T20:10:01.979Z,358.42
2022-07-27T20:12:28.537Z,326.60
2022-07-27T20:14:55.083Z,303.10
2022-07-27T20:17:21.678Z,291.67
2022-07-27T20:19:48.266Z,283.83
2022-07-27T20:22:14.819Z,263.05
2022-07-27T20:24:41.354Z,264.60
2022-07-27T20:27:07.928Z,242.15
2022-07-27T20:29:35.563Z,239.55
2022-07-27T20:32:02.197Z,244.40
2022-07-27T20:34:28.810Z,227.10
2022-07-27T20:36:55.941Z,215.85
2022-07-27T20:39:25.381Z,222.70
2022-07-27T20:41:52.265Z,185.50
2022-07-27T20:44:20.814Z,192.48
2022-07-27T20:46:47.617Z,192.45
2022-07-27T20:49:14.617Z,193.85
2022-07-27T20:51:42.145Z,216.43
2022-07-27T20:54:08.730Z,228.50
2022-07-27T20:56:35.347Z,217.57
2022-07-27T20:59:03.680Z,194.13
2022-07-27T21:01:35.469Z,193.45
2022-07-27T21:04:02.188Z,221.48
2022-07-27T21:06:30.120Z,203.25
2022-07-27T21:08:56.861Z,183.77
2022-07-27T21:11:23.522Z,162.07
2022-07-27T21:13:50.064Z,176.00
2022-07-27T21:16:16.634Z,179.32
2022-07-27T21:18:43.284Z,151.48
2022-07-27T21:21:09.824Z,162.45
2022-07-27T21:23:54.975Z,160.30
2022-07-27T21:26:21.735Z,161.65
2022-07-27T21:28:49.787Z,180.68
2022-07-27T21:31:16.371Z,181.27
2022-07-27T21:33:43.006Z,167.18
2022-07-27T21:36:11.076Z,167.73
2022-07-27T21:38:37.607Z,183.95
2022-07-27T21:41:04.296Z,165.90
2022-07-27T21:43:31.950Z,160.68
2022-07-27T21:45:58.566Z,162.98
2022-07-27T21:48:25.282Z,176.45
2022-07-27T21:50:52.267Z,177.82
2022-07-27T21:53:19.344Z,189.35
2022-07-27T21:55:46.364Z,171.80
2022-07-27T21:58:13.299Z,209.15
2022-07-27T22:00:39.903Z,214.90
2022-07-27T22:03:06.988Z,196.90
2022-07-27T22:05:34.092Z,200.77
2022-07-27T22:08:00.910Z,181.00
2022-07-27T22:10:28.630Z,166.52
2022-07-27T22:12:55.435Z,194.05
2022-07-27T22:15:21.951Z,183.07
2022-07-27T22:17:50.879Z,181.82
2022-07-27T22:20:19.770Z,201.63
2022-07-27T22:22:47.203Z,197.70
2022-07-27T22:25:14.718Z,194.77
2022-07-27T22:27:41.896Z,194.23
2022-07-27T22:30:09.156Z,181.80
2022-07-27T22:32:36.058Z,187.05
2022-07-27T22:35:03.286Z,201.63
2022-07-27T22:37:29.896Z,186.57
2022-07-27T22:39:56.405Z,227.63
2022-07-27T22:42:23.137Z,217.18
2022-07-27T22:44:49.666Z,225.90
2022-07-27T22:47:16.271Z,210.68
2022-07-27T22:49:42.813Z,205.50
2022-07-27T22:52:09.382Z,196.48
2022-07-27T22:54:37.486Z,188.55
2022-07-27T22:57:05.852Z,197.30
2022-07-27T22:59:33.307Z,209.60
2022-07-27T23:02:00.151Z,215.20
2022-07-27T23:04:26.742Z,206.10
2022-07-27T23:06:53.305Z,199.52
2022-07-27T23:09:20.060Z,194.57
2022-07-27T23:11:47.932Z,201.10
2022-07-27T23:14:16.130Z,182.10
2022-07-27T23:16:50.136Z,166.30
2022-07-27T23:19:17.598Z,168.30
2022-07-27T23:21:44.128Z,179.85
2022-07-27T23:24:11.546Z,171.85
2022-07-27T23:26:41.024Z,182.32
2022-07-27T23:29:07.808Z,171.98
2022-07-27T23:31:34.946Z,161.93
2022-07-27T23:34:01.604Z,169.73
2022-07-27T23:36:28.199Z,176.85
2022-07-27T23:38:54.766Z,184.98
2022-07-27T23:41:21.402Z,174.10
2022-07-27T23:43:47.983Z,163.52
2022-07-27T23:46:14.615Z,161.65
2022-07-27T23:48:41.471Z,147.95
2022-07-27T23:51:08.929Z,142.27
2022-07-27T23:53:35.474Z,138.55
2022-07-27T23:56:02.215Z,142.85
2022-07-27T23:58:29.596Z,121.75
